Time,TemperatureF,DewpointF,PressureIn,WindDirection,WindDirectionDegrees,WindSpeedMPH,WindSpeedGustMPH,Humidity,HourlyPrecipIn,Conditions,Clouds,dailyrainin,SoftwareType,DateUTC
2013-01-09 00:00:00,34.7,21.4,30.20,WNW,292,1.3,1.3,58,0.00,,,0.00,VWS V14.01,2013-01-08 22:00:00,
2013-01-09 00:05:00,34.9,21.6,30.21,NW,315,8.9,8.9,58,0.00,,,0.00,VWS V14.01,2013-01-08 22:05:00,
2013-01-09 00:10:00,35.1,21.8,30.20,NW,315,2.9,6.9,58,0.00,,,0.00,VWS V14.01,2013-01-08 22:10:00,
2013-01-09 00:15:00,35.1,21.4,30.20,NW,315,2.0,5.1,57,0.00,,,0.00,VWS V14.01,2013-01-08 22:15:00,
2013-01-09 00:20:00,34.9,21.6,30.20,NNW,338,0.0,1.7,58,0.00,,,0.00,VWS V14.01,2013-01-08 22:20:00,
2013-01-09 00:25:00,34.9,22.0,30.20,NNW,338,0.0,0.0,59,0.00,,,0.00,VWS V14.01,2013-01-08 22:25:00,
2013-01-09 00:30:00,34.9,22.4,30.20,NW,315,0.0,0.0,60,0.00,,,0.00,VWS V14.01,2013-01-08 22:30:00,
2013-01-09 00:35:00,34.9,22.4,30.20,WNW,292,1.7,5.8,60,0.00,,,0.00,VWS V14.01,2013-01-08 22:35:00,
2013-01-09 00:40:00,34.7,22.2,30.20,NW,315,5.1,6.0,60,0.00,,,0.00,VWS V14.01,2013-01-08 22:40:00,
2013-01-09 00:45:00,34.5,22.0,30.20,NW,315,0.0,0.8,60,0.00,,,0.00,VWS V14.01,2013-01-08 22:45:00,
2013-01-09 00:50:00,34.3,21.8,30.20,NW,315,4.6,5.8,60,0.00,,,0.00,VWS V14.01,2013-01-08 22:50:00,
2013-01-09 00:55:00,34.3,21.8,30.20,NW,315,3.5,3.5,60,0.00,,,0.00,VWS V14.01,2013-01-08 22:55:00,
2013-01-09 01:00:00,34.3,21.8,30.20,WNW,292,2.2,3.5,60,0.00,,,0.00,VWS V14.01,2013-01-08 23:00:00,
2013-01-09 01:05:00,34.5,22.0,30.20,North,0,10.7,12.0,60,0.00,,,0.00,VWS V14.01,2013-01-08 23:05:00,
2013-01-09 01:10:00,34.9,22.4,30.20,NW,315,4.6,12.3,60,0.00,,,0.00,VWS V14.01,2013-01-08 23:10:00,
2013-01-09 01:15:00,34.9,22.4,30.20,WNW,292,12.9,12.9,60,0.00,,,0.00,VWS V14.01,2013-01-08 23:15:00,
2013-01-09 01:20:00,35.1,22.6,30.20,NW,315,13.8,13.8,60,0.00,,,0.00,VWS V14.01,2013-01-08 23:20:00,
2013-01-09 01:25:00,35.2,22.7,30.20,NW,315,11.1,11.1,60,0.00,,,0.00,VWS V14.01,2013-01-08 23:25:00,
2013-01-09 01:30:00,35.2,22.7,30.20,NW,315,5.3,7.8,60,0.00,,,0.00,VWS V14.01,2013-01-08 23:30:00,
2013-01-09 01:36:00,35.2,22.7,30.19,NNW,338,10.0,14.7,60,0.00,,,0.00,VWS V14.01,2013-01-08 23:36:00,
2013-01-09 01:41:00,35.4,22.9,30.20,NNW,338,8.2,8.5,60,0.00,,,0.00,VWS V14.01,2013-01-08 23:41:00,
2013-01-09 01:46:00,35.4,22.5,30.20,NW,315,10.0,10.0,59,0.00,,,0.00,VWS V14.01,2013-01-08 23:46:00,
2013-01-09 01:51:00,35.8,22.5,30.20,NNW,338,13.8,13.8,58,0.00,,,0.00,VWS V14.01,2013-01-08 23:51:00,
2013-01-09 01:56:00,36.0,23.0,30.20,NW,315,11.8,18.7,59,0.00,,,0.00,VWS V14.01,2013-01-08 23:56:00,
2013-01-09 02:01:00,36.1,22.7,30.20,NNW,338,9.1,12.7,58,0.00,,,0.00,VWS V14.01,2013-01-09 00:01:00,
2013-01-09 02:06:00,36.1,22.3,30.20,NNW,338,10.5,10.5,57,0.00,,,0.00,VWS V14.01,2013-01-09 00:06:00,
2013-01-09 02:11:00,36.0,22.6,30.21,WSW,248,10.5,10.9,58,0.00,,,0.00,VWS V14.01,2013-01-09 00:11:00,
2013-01-09 02:16:00,35.8,22.5,30.21,NNW,338,10.5,14.5,58,0.00,,,0.00,VWS V14.01,2013-01-09 00:16:00,
2013-01-09 02:21:00,35.6,22.7,30.21,NNW,338,10.5,11.1,59,0.00,,,0.00,VWS V14.01,2013-01-09 00:21:00,
2013-01-09 02:26:00,35.6,22.7,30.20,NW,315,12.5,12.5,59,0.00,,,0.00,VWS V14.01,2013-01-09 00:26:00,
2013-01-09 02:31:00,35.2,22.7,30.20,West,270,8.0,8.0,60,0.00,,,0.00,VWS V14.01,2013-01-09 00:31:00,
2013-01-09 02:36:00,35.2,22.7,30.21,NW,315,8.5,9.3,60,0.00,,,0.00,VWS V14.01,2013-01-09 00:36:00,
2013-01-09 02:41:00,35.1,22.6,30.21,NW,315,8.5,8.5,60,0.00,,,0.00,VWS V14.01,2013-01-09 00:41:00,
2013-01-09 02:46:00,35.1,22.6,30.21,NNW,338,5.3,10.5,60,0.00,,,0.00,VWS V14.01,2013-01-09 00:46:00,
2013-01-09 02:52:00,34.9,22.4,30.21,NW,315,10.0,10.0,60,0.00,,,0.00,VWS V14.01,2013-01-09 00:52:00,
2013-01-09 02:57:00,34.9,22.4,30.21,NNW,338,16.1,16.1,60,0.00,,,0.00,VWS V14.01,2013-01-09 00:57:00,
2013-01-09 03:02:00,35.2,22.7,30.20,North,0,8.2,8.2,60,0.00,,,0.00,VWS V14.01,2013-01-09 01:02:00,
2013-01-09 03:07:00,35.4,22.9,30.20,NNW,338,9.1,9.1,60,0.00,,,0.00,VWS V14.01,2013-01-09 01:07:00,
2013-01-09 03:12:00,35.4,22.9,30.20,NNW,338,12.5,12.5,60,0.00,,,0.00,VWS V14.01,2013-01-09 01:12:00,
2013-01-09 03:17:00,35.6,23.1,30.20,NW,315,11.1,15.8,60,0.00,,,0.00,VWS V14.01,2013-01-09 01:17:00,
2013-01-09 03:22:00,35.6,23.1,30.20,NW,315,11.6,14.3,60,0.00,,,0.00,VWS V14.01,2013-01-09 01:22:00,
2013-01-09 03:27:00,35.8,23.2,30.20,NNW,338,12.9,18.3,60,0.00,,,0.00,VWS V14.01,2013-01-09 01:27:00,
2013-01-09 03:32:00,36.0,23.0,30.20,NNW,338,13.1,21.2,59,0.00,,,0.00,VWS V14.01,2013-01-09 01:32:00,
2013-01-09 03:37:00,36.1,23.1,30.20,NW,315,19.6,19.6,59,0.00,,,0.00,VWS V14.01,2013-01-09 01:37:00,
2013-01-09 03:42:00,36.1,23.1,30.20,NNW,338,12.7,12.7,59,0.00,,,0.00,VWS V14.01,2013-01-09 01:42:00,
2013-01-09 03:47:00,36.0,23.0,30.21,NW,315,5.3,10.5,59,0.00,,,0.00,VWS V14.01,2013-01-09 01:47:00,
2013-01-09 03:52:00,36.0,23.0,30.20,NW,315,10.9,12.7,59,0.00,,,0.00,VWS V14.01,2013-01-09 01:52:00,
2013-01-09 03:57:00,35.6,23.1,30.20,West,270,7.6,14.3,60,0.00,,,0.00,VWS V14.01,2013-01-09 01:57:00,
2013-01-09 04:02:00,35.6,23.5,30.20,NNW,338,14.9,14.9,61,0.00,,,0.00,VWS V14.01,2013-01-09 02:02:00,
2013-01-09 04:07:00,35.6,23.5,30.19,NNW,338,18.5,18.5,61,0.00,,,0.00,VWS V14.01,2013-01-09 02:07:00,
2013-01-09 04:12:00,36.0,23.8,30.19,NW,315,18.1,23.0,61,0.00,,,0.00,VWS V14.01,2013-01-09 02:12:00,
2013-01-09 04:17:00,35.8,23.6,30.19,NNW,338,13.8,14.0,61,0.00,,,0.00,VWS V14.01,2013-01-09 02:17:00,
2013-01-09 04:22:00,35.8,24.0,30.19,WNW,292,19.9,19.9,62,0.00,,,0.00,VWS V14.01,2013-01-09 02:22:00,
2013-01-09 04:27:00,35.8,24.0,30.19,NNW,338,22.1,22.1,62,0.00,,,0.00,VWS V14.01,2013-01-09 02:27:00,
2013-01-09 04:33:00,36.0,23.8,30.19,NNW,338,19.2,19.2,61,0.00,,,0.00,VWS V14.01,2013-01-09 02:33:00,
2013-01-09 04:38:00,35.8,23.6,30.19,NNW,338,11.1,17.6,61,0.00,,,0.00,VWS V14.01,2013-01-09 02:38:00,
2013-01-09 04:43:00,35.8,23.6,30.19,North,0,11.4,17.6,61,0.00,,,0.00,VWS V14.01,2013-01-09 02:43:00,
2013-01-09 04:48:00,36.1,23.5,30.18,NW,315,19.9,24.6,60,0.00,,,0.00,VWS V14.01,2013-01-09 02:48:00,
2013-01-09 04:53:00,36.5,23.1,30.19,WNW,292,13.4,19.9,58,0.00,,,0.00,VWS V14.01,2013-01-09 02:53:00,
2013-01-09 04:58:00,36.3,22.9,30.19,WNW,292,8.7,8.7,58,0.00,,,0.00,VWS V14.01,2013-01-09 02:58:00,
2013-01-09 05:03:00,36.3,22.5,30.19,WNW,292,11.8,11.8,57,0.00,,,0.00,VWS V14.01,2013-01-09 03:03:00,
2013-01-09 05:08:00,36.3,22.9,30.19,West,270,8.2,8.2,58,0.00,,,0.00,VWS V14.01,2013-01-09 03:08:00,
2013-01-09 05:13:00,36.1,22.7,30.19,West,270,4.9,4.9,58,0.00,,,0.00,VWS V14.01,2013-01-09 03:13:00,
2013-01-09 05:18:00,36.1,22.7,30.20,NW,315,8.2,8.2,58,0.00,,,0.00,VWS V14.01,2013-01-09 03:18:00,
2013-01-09 05:23:00,35.8,22.5,30.20,NW,315,3.1,3.1,58,0.00,,,0.00,VWS V14.01,2013-01-09 03:23:00,
2013-01-09 05:28:00,35.4,22.9,30.20,NW,315,5.8,5.8,60,0.00,,,0.00,VWS V14.01,2013-01-09 03:28:00,
2013-01-09 05:33:00,35.2,22.7,30.20,NW,315,0.0,0.0,60,0.00,,,0.00,VWS V14.01,2013-01-09 03:33:00,
2013-01-09 05:38:00,35.1,22.6,30.20,NNW,338,0.0,0.0,60,0.00,,,0.00,VWS V14.01,2013-01-09 03:38:00,
2013-01-09 05:43:00,34.9,22.8,30.20,NNW,338,0.6,0.6,61,0.00,,,0.00,VWS V14.01,2013-01-09 03:43:00,
2013-01-09 05:48:00,34.9,22.8,30.20,NNW,338,0.0,0.0,61,0.00,,,0.00,VWS V14.01,2013-01-09 03:48:00,
2013-01-09 05:53:00,34.9,22.8,30.20,NNW,338,0.0,0.0,61,0.00,,,0.00,VWS V14.01,2013-01-09 03:53:00,
2013-01-09 05:58:00,34.7,22.6,30.20,NW,315,4.4,4.4,61,0.00,,,0.00,VWS V14.01,2013-01-09 03:58:00,
2013-01-09 06:04:00,34.9,22.8,30.21,West,270,5.5,5.5,61,0.00,,,0.00,VWS V14.01,2013-01-09 04:04:00,
2013-01-09 06:09:00,34.9,23.2,30.21,NNW,338,0.0,0.0,62,0.00,,,0.00,VWS V14.01,2013-01-09 04:09:00,
2013-01-09 06:14:00,34.9,23.2,30.20,WNW,292,2.4,2.4,62,0.00,,,0.00,VWS V14.01,2013-01-09 04:14:00,
2013-01-09 06:19:00,34.9,23.2,30.20,NNW,338,9.6,9.6,62,0.00,,,0.00,VWS V14.01,2013-01-09 04:19:00,
2013-01-09 06:24:00,34.9,23.6,30.20,NNW,338,2.6,5.1,63,0.00,,,0.00,VWS V14.01,2013-01-09 04:24:00,
2013-01-09 06:29:00,34.9,23.6,30.21,NNW,338,2.9,2.9,63,0.00,,,0.00,VWS V14.01,2013-01-09 04:29:00,
2013-01-09 06:34:00,34.7,23.4,30.21,NNW,338,6.4,6.9,63,0.00,,,0.00,VWS V14.01,2013-01-09 04:34:00,
2013-01-09 06:39:00,34.9,23.6,30.21,NNW,338,10.7,10.7,63,0.00,,,0.00,VWS V14.01,2013-01-09 04:39:00,
2013-01-09 06:44:00,34.9,23.6,30.21,NNW,338,12.3,12.3,63,0.00,,,0.00,VWS V14.01,2013-01-09 04:44:00,
2013-01-09 06:49:00,35.2,23.9,30.21,NNW,338,11.4,11.4,63,0.00,,,0.00,VWS V14.01,2013-01-09 04:49:00,
2013-01-09 06:54:00,35.6,23.8,30.21,North,0,0.8,0.8,62,0.00,,,0.00,VWS V14.01,2013-01-09 04:54:00,
2013-01-09 06:59:00,35.4,23.6,30.21,NNW,338,11.6,11.6,62,0.00,,,0.00,VWS V14.01,2013-01-09 04:59:00,
2013-01-09 07:03:00,35.2,23.5,30.21,NNW,338,5.1,5.1,62,0.00,,,0.00,VWS V14.01,2013-01-09 05:03:00,
2013-01-09 07:04:00,35.2,23.5,30.22,NNW,338,5.1,5.1,62,0.00,,,0.00,VWS V14.01,2013-01-09 05:04:00,
2013-01-09 07:06:00,35.4,23.6,30.22,NNW,338,2.4,2.4,62,0.00,,,0.00,VWS V14.01,2013-01-09 05:06:00,
2013-01-09 07:11:00,35.1,23.4,30.22,NNW,338,0.0,0.0,62,0.00,,,0.00,VWS V14.01,2013-01-09 05:11:00,
2013-01-09 07:16:00,34.9,23.6,30.22,NNW,338,0.0,0.0,63,0.00,,,0.00,VWS V14.01,2013-01-09 05:16:00,
2013-01-09 07:21:00,34.7,23.4,30.22,NNW,338,0.0,0.0,63,0.00,,,0.00,VWS V14.01,2013-01-09 05:21:00,
2013-01-09 07:26:00,34.5,23.6,30.22,NE,45,0.0,0.0,64,0.00,,,0.00,VWS V14.01,2013-01-09 05:26:00,
2013-01-09 07:31:00,34.9,23.6,30.22,North,0,7.6,7.6,63,0.00,,,0.00,VWS V14.01,2013-01-09 05:31:00,
2013-01-09 07:36:00,34.9,23.6,30.22,North,0,1.5,1.5,63,0.00,,,0.00,VWS V14.01,2013-01-09 05:36:00,
2013-01-09 07:41:00,34.9,23.6,30.22,NNW,338,2.4,2.4,63,0.00,,,0.00,VWS V14.01,2013-01-09 05:41:00,
2013-01-09 07:46:00,34.9,23.6,30.23,NNW,338,0.0,0.0,63,0.00,,,0.00,VWS V14.01,2013-01-09 05:46:00,
2013-01-09 07:51:00,34.9,23.6,30.23,NNW,338,0.0,0.0,63,0.00,,,0.00,VWS V14.01,2013-01-09 05:51:00,
2013-01-09 07:56:00,34.9,23.6,30.23,NNW,338,1.3,1.3,63,0.00,,,0.00,VWS V14.01,2013-01-09 05:56:00,
2013-01-09 08:01:00,34.9,23.6,30.23,NNW,338,0.0,0.0,63,0.00,,,0.00,VWS V14.01,2013-01-09 06:01:00,
2013-01-09 08:06:00,34.9,23.6,30.23,WNW,292,3.3,3.3,63,0.00,,,0.00,VWS V14.01,2013-01-09 06:06:00,
2013-01-09 08:11:00,34.9,23.6,30.23,NNW,338,3.5,3.5,63,0.00,,,0.00,VWS V14.01,2013-01-09 06:11:00,
2013-01-09 08:16:00,34.9,23.9,30.23,NNW,338,0.0,0.0,64,0.00,,,0.00,VWS V14.01,2013-01-09 06:16:00,
2013-01-09 08:21:00,34.9,23.9,30.23,WNW,292,2.2,2.2,64,0.00,,,0.00,VWS V14.01,2013-01-09 06:21:00,
2013-01-09 08:27:00,34.9,24.3,30.23,NW,315,0.0,0.0,65,0.00,,,0.00,VWS V14.01,2013-01-09 06:27:00,
2013-01-09 08:32:00,35.4,24.4,30.24,NNW,338,7.1,7.1,64,0.00,,,0.00,VWS V14.01,2013-01-09 06:32:00,
2013-01-09 08:37:00,35.6,24.6,30.24,NNW,338,0.0,0.0,64,0.00,,,0.00,VWS V14.01,2013-01-09 06:37:00,
2013-01-09 08:42:00,36.1,24.3,30.24,NNW,338,0.0,0.4,62,0.00,,,0.00,VWS V14.01,2013-01-09 06:42:00,
2013-01-09 08:47:00,36.1,24.3,30.24,NNW,338,0.0,0.0,62,0.00,,,0.00,VWS V14.01,2013-01-09 06:47:00,
2013-01-09 08:52:00,36.3,24.5,30.25,NNW,338,5.1,5.1,62,0.00,,,0.00,VWS V14.01,2013-01-09 06:52:00,
2013-01-09 08:57:00,36.1,23.9,30.25,NNW,338,1.1,1.1,61,0.00,,,0.00,VWS V14.01,2013-01-09 06:57:00,
2013-01-09 09:02:00,36.1,23.9,30.25,NNW,338,0.0,0.0,61,0.00,,,0.00,VWS V14.01,2013-01-09 07:02:00,
2013-01-09 09:07:00,36.1,24.3,30.25,NNW,338,0.0,0.0,62,0.00,,,0.00,VWS V14.01,2013-01-09 07:07:00,
2013-01-09 09:12:00,36.1,24.3,30.24,NNW,338,0.0,0.0,62,0.00,,,0.00,VWS V14.01,2013-01-09 07:12:00,
2013-01-09 09:17:00,36.5,24.7,30.25,NNW,338,0.0,0.0,62,0.00,,,0.00,VWS V14.01,2013-01-09 07:17:00,
2013-01-09 09:22:00,37.0,24.4,30.25,NNW,338,0.0,0.0,60,0.00,,,0.00,VWS V14.01,2013-01-09 07:22:00,
2013-01-09 09:27:00,37.6,25.0,30.25,NNW,338,6.4,6.4,60,0.00,,,0.00,VWS V14.01,2013-01-09 07:27:00,
2013-01-09 09:32:00,37.9,24.4,30.25,North,0,5.8,6.4,58,0.00,,,0.00,VWS V14.01,2013-01-09 07:32:00,
2013-01-09 09:37:00,38.3,24.0,30.25,NNW,338,0.0,4.2,56,0.00,,,0.00,VWS V14.01,2013-01-09 07:37:00,
2013-01-09 09:42:00,38.7,24.8,30.25,NNW,338,3.3,5.8,57,0.00,,,0.00,VWS V14.01,2013-01-09 07:42:00,
2013-01-09 09:47:00,38.8,24.4,30.25,North,0,2.9,2.9,56,0.00,,,0.00,VWS V14.01,2013-01-09 07:47:00,
2013-01-09 09:52:00,38.8,24.4,30.25,WNW,292,0.0,0.0,56,0.00,,,0.00,VWS V14.01,2013-01-09 07:52:00,
2013-01-09 09:57:00,39.2,24.8,30.26,North,0,7.6,7.6,56,0.00,,,0.00,VWS V14.01,2013-01-09 07:57:00,
2013-01-09 10:02:00,39.2,24.8,30.25,NW,315,10.5,10.5,56,0.00,,,0.00,VWS V14.01,2013-01-09 08:02:00,
2013-01-09 10:07:00,39.4,24.5,30.25,NNW,338,4.0,9.1,55,0.00,,,0.00,VWS V14.01,2013-01-09 08:07:00,
2013-01-09 10:13:00,39.4,24.5,30.25,NW,315,8.5,8.5,55,0.00,,,0.00,VWS V14.01,2013-01-09 08:13:00,
2013-01-09 10:18:00,39.7,25.3,30.25,NNW,338,9.6,9.6,56,0.00,,,0.00,VWS V14.01,2013-01-09 08:18:00,
2013-01-09 10:23:00,39.9,25.5,30.25,NNW,338,8.0,8.0,56,0.00,,,0.00,VWS V14.01,2013-01-09 08:23:00,
2013-01-09 10:28:00,40.1,25.2,30.25,NNW,338,2.9,2.9,55,0.00,,,0.00,VWS V14.01,2013-01-09 08:28:00,
2013-01-09 10:33:00,40.3,25.4,30.25,NNW,338,0.6,0.6,55,0.00,,,0.00,VWS V14.01,2013-01-09 08:33:00,
2013-01-09 10:38:00,40.6,25.7,30.25,NNE,22,0.0,0.0,55,0.00,,,0.00,VWS V14.01,2013-01-09 08:38:00,
2013-01-09 10:43:00,40.8,25.9,30.25,North,0,0.0,0.0,55,0.00,,,0.00,VWS V14.01,2013-01-09 08:43:00,
2013-01-09 10:48:00,41.0,26.5,30.25,NNE,22,2.0,2.0,56,0.00,,,0.00,VWS V14.01,2013-01-09 08:48:00,
2013-01-09 10:53:00,41.2,26.2,30.25,North,0,0.0,0.0,55,0.00,,,0.00,VWS V14.01,2013-01-09 08:53:00,
2013-01-09 10:58:00,41.0,26.0,30.24,North,0,0.6,0.6,55,0.00,,,0.00,VWS V14.01,2013-01-09 08:58:00,
2013-01-09 11:03:00,41.2,25.3,30.25,NNW,338,0.0,4.2,53,0.00,,,0.00,VWS V14.01,2013-01-09 09:03:00,
2013-01-09 11:08:00,41.7,26.3,30.25,WNW,292,0.0,0.0,54,0.00,,,0.00,VWS V14.01,2013-01-09 09:08:00,
2013-01-09 11:13:00,42.3,26.4,30.25,West,270,0.0,0.0,53,0.00,,,0.00,VWS V14.01,2013-01-09 09:13:00,
2013-01-09 11:18:00,42.4,26.5,30.24,West,270,0.0,0.0,53,0.00,,,0.00,VWS V14.01,2013-01-09 09:18:00,
2013-01-09 11:23:00,42.6,26.2,30.24,NW,315,0.0,0.0,52,0.00,,,0.00,VWS V14.01,2013-01-09 09:23:00,
2013-01-09 11:28:00,42.8,26.4,30.24,NW,315,0.0,0.0,52,0.00,,,0.00,VWS V14.01,2013-01-09 09:28:00,
2013-01-09 11:33:00,43.3,26.4,30.24,NNW,338,3.5,3.5,51,0.00,,,0.00,VWS V14.01,2013-01-09 09:33:00,
2013-01-09 11:38:00,43.7,26.7,30.24,NNW,338,0.0,0.0,51,0.00,,,0.00,VWS V14.01,2013-01-09 09:38:00,
2013-01-09 11:43:00,43.9,27.4,30.24,NNW,338,0.0,0.0,52,0.00,,,0.00,VWS V14.01,2013-01-09 09:43:00,
2013-01-09 11:48:00,43.3,25.9,30.24,NNW,338,2.6,2.6,50,0.00,,,0.00,VWS V14.01,2013-01-09 09:48:00,
2013-01-09 11:54:00,43.5,27.0,30.23,NNW,338,0.0,0.0,52,0.00,,,0.00,VWS V14.01,2013-01-09 09:54:00,
2013-01-09 11:59:00,43.7,26.3,30.23,NNW,338,0.0,0.0,50,0.00,,,0.00,VWS V14.01,2013-01-09 09:59:00,
2013-01-09 12:04:00,43.7,26.7,30.23,NNW,338,0.0,0.0,51,0.00,,,0.00,VWS V14.01,2013-01-09 10:04:00,
2013-01-09 12:09:00,44.6,26.6,30.23,NNW,338,3.5,3.5,49,0.00,,,0.00,VWS V14.01,2013-01-09 10:09:00,
2013-01-09 12:14:00,44.2,27.2,30.22,NW,315,3.1,3.1,51,0.00,,,0.00,VWS V14.01,2013-01-09 10:14:00,
2013-01-09 12:19:00,44.2,26.7,30.22,NW,315,0.0,0.0,50,0.00,,,0.00,VWS V14.01,2013-01-09 10:19:00,
2013-01-09 12:24:00,44.2,26.7,30.22,North,0,2.0,2.0,50,0.00,,,0.00,VWS V14.01,2013-01-09 10:24:00,
2013-01-09 12:29:00,44.2,27.2,30.22,NNW,338,0.0,0.0,51,0.00,,,0.00,VWS V14.01,2013-01-09 10:29:00,
2013-01-09 12:34:00,44.2,26.7,30.21,NNW,338,0.0,0.0,50,0.00,,,0.00,VWS V14.01,2013-01-09 10:34:00,
2013-01-09 12:39:00,44.4,26.9,30.21,NNW,338,0.0,0.0,50,0.00,,,0.00,VWS V14.01,2013-01-09 10:39:00,
2013-01-09 12:44:00,45.0,27.5,30.21,NNW,338,0.0,0.0,50,0.00,,,0.00,VWS V14.01,2013-01-09 10:44:00,
2013-01-09 12:49:00,45.3,27.2,30.20,West,270,0.0,0.0,49,0.00,,,0.00,VWS V14.01,2013-01-09 10:49:00,
2013-01-09 12:54:00,45.3,26.8,30.20,West,270,0.0,0.0,48,0.00,,,0.00,VWS V14.01,2013-01-09 10:54:00,
2013-01-09 12:59:00,45.7,28.1,30.20,West,270,0.0,0.0,50,0.00,,,0.00,VWS V14.01,2013-01-09 10:59:00,
2013-01-09 13:04:00,46.0,26.9,30.20,North,0,0.0,0.0,47,0.00,,,0.00,VWS V14.01,2013-01-09 11:04:00,
2013-01-09 13:09:00,45.7,27.1,30.20,NNE,22,0.0,0.0,48,0.00,,,0.00,VWS V14.01,2013-01-09 11:09:00,
2013-01-09 13:14:00,45.7,27.1,30.20,NNE,22,0.0,0.0,48,0.00,,,0.00,VWS V14.01,2013-01-09 11:14:00,
2013-01-09 13:19:00,45.3,26.8,30.20,North,0,4.6,4.6,48,0.00,,,0.00,VWS V14.01,2013-01-09 11:19:00,
2013-01-09 13:24:00,44.6,26.6,30.20,NNW,338,0.0,0.0,49,0.00,,,0.00,VWS V14.01,2013-01-09 11:24:00,
2013-01-09 13:29:00,44.6,27.1,30.20,NNW,338,0.0,0.0,50,0.00,,,0.00,VWS V14.01,2013-01-09 11:29:00,
2013-01-09 13:35:00,45.1,28.0,30.19,NNW,338,0.0,0.0,51,0.00,,,0.00,VWS V14.01,2013-01-09 11:35:00,
2013-01-09 13:40:00,45.1,27.5,30.19,NNW,338,0.0,0.0,50,0.00,,,0.00,VWS V14.01,2013-01-09 11:40:00,
2013-01-09 13:45:00,45.0,27.5,30.19,NNW,338,0.0,0.0,50,0.00,,,0.00,VWS V14.01,2013-01-09 11:45:00,
2013-01-09 13:50:00,45.0,27.9,30.19,NNW,338,0.0,0.0,51,0.00,,,0.00,VWS V14.01,2013-01-09 11:50:00,
2013-01-09 13:55:00,44.8,27.8,30.19,NNW,338,0.0,0.0,51,0.00,,,0.00,VWS V14.01,2013-01-09 11:55:00,
2013-01-09 14:00:00,44.6,28.0,30.19,ESE,112,0.0,0.0,52,0.00,,,0.00,VWS V14.01,2013-01-09 12:00:00,
2013-01-09 14:05:00,44.6,28.5,30.18,SSE,158,0.0,0.0,53,0.00,,,0.00,VWS V14.01,2013-01-09 12:05:00,
2013-01-09 14:10:00,44.2,27.7,30.18,SSE,158,0.0,0.0,52,0.00,,,0.00,VWS V14.01,2013-01-09 12:10:00,
2013-01-09 14:15:00,44.6,28.5,30.19,SSE,158,0.0,0.0,53,0.00,,,0.00,VWS V14.01,2013-01-09 12:15:00,
2013-01-09 14:20:00,45.3,28.7,30.19,SSE,158,0.0,0.0,52,0.00,,,0.00,VWS V14.01,2013-01-09 12:20:00,
2013-01-09 14:25:00,45.1,28.0,30.19,SSE,158,0.0,0.0,51,0.00,,,0.00,VWS V14.01,2013-01-09 12:25:00,
2013-01-09 14:30:00,45.3,28.7,30.19,SSE,158,0.0,0.0,52,0.00,,,0.00,VWS V14.01,2013-01-09 12:30:00,
2013-01-09 14:35:00,45.1,28.0,30.19,SSE,158,0.0,0.0,51,0.00,,,0.00,VWS V14.01,2013-01-09 12:35:00,
2013-01-09 14:40:00,44.8,28.2,30.19,SSE,158,2.4,5.3,52,0.00,,,0.00,VWS V14.01,2013-01-09 12:40:00,
2013-01-09 14:45:00,44.6,28.5,30.20,SSE,158,0.0,0.0,53,0.00,,,0.00,VWS V14.01,2013-01-09 12:45:00,
2013-01-09 14:50:00,44.6,28.5,30.20,SE,135,0.0,0.0,53,0.00,,,0.00,VWS V14.01,2013-01-09 12:50:00,
2013-01-09 14:55:00,44.2,28.1,30.20,SE,135,0.0,0.0,53,0.00,,,0.00,VWS V14.01,2013-01-09 12:55:00,
2013-01-09 15:00:00,44.1,28.0,30.20,ESE,112,0.0,0.0,53,0.00,,,0.00,VWS V14.01,2013-01-09 13:00:00,
2013-01-09 15:05:00,43.9,27.9,30.20,ESE,112,0.0,0.0,53,0.00,,,0.00,VWS V14.01,2013-01-09 13:05:00,
2013-01-09 15:10:00,43.9,28.3,30.20,ESE,112,0.0,0.0,54,0.00,,,0.00,VWS V14.01,2013-01-09 13:10:00,
2013-01-09 15:16:00,43.9,28.3,30.20,ESE,112,0.0,0.0,54,0.00,,,0.00,VWS V14.01,2013-01-09 13:16:00,
2013-01-09 15:21:00,43.9,28.3,30.20,ENE,68,0.0,0.0,54,0.00,,,0.00,VWS V14.01,2013-01-09 13:21:00,
2013-01-09 15:26:00,43.5,28.8,30.20,ESE,112,2.9,2.9,56,0.00,,,0.00,VWS V14.01,2013-01-09 13:26:00,
2013-01-09 15:31:00,43.3,29.1,30.20,ESE,112,0.0,0.0,57,0.00,,,0.00,VWS V14.01,2013-01-09 13:31:00,
2013-01-09 15:36:00,43.2,29.0,30.20,NE,45,0.0,0.0,57,0.00,,,0.00,VWS V14.01,2013-01-09 13:36:00,
2013-01-09 15:41:00,43.0,29.2,30.20,ENE,68,1.7,1.7,58,0.00,,,0.00,VWS V14.01,2013-01-09 13:41:00,
2013-01-09 15:46:00,43.0,29.2,30.20,ENE,68,0.0,0.0,58,0.00,,,0.00,VWS V14.01,2013-01-09 13:46:00,
2013-01-09 15:51:00,42.8,29.0,30.20,ENE,68,0.0,1.3,58,0.00,,,0.00,VWS V14.01,2013-01-09 13:51:00,
2013-01-09 15:56:00,42.8,29.0,30.19,ENE,68,0.0,0.0,58,0.00,,,0.00,VWS V14.01,2013-01-09 13:56:00,
2013-01-09 16:01:00,42.8,29.4,30.19,ENE,68,0.0,0.0,59,0.00,,,0.00,VWS V14.01,2013-01-09 14:01:00,
2013-01-09 16:06:00,43.0,29.6,30.19,ENE,68,0.0,0.0,59,0.00,,,0.00,VWS V14.01,2013-01-09 14:06:00,
2013-01-09 16:11:00,42.8,29.4,30.19,ENE,68,0.0,0.0,59,0.00,,,0.00,VWS V14.01,2013-01-09 14:11:00,
2013-01-09 16:16:00,42.8,29.4,30.19,ENE,68,0.0,0.0,59,0.00,,,0.00,VWS V14.01,2013-01-09 14:16:00,
2013-01-09 16:22:00,42.8,29.4,30.19,ENE,68,0.0,0.0,59,0.00,,,0.00,VWS V14.01,2013-01-09 14:22:00,
2013-01-09 16:27:00,42.6,29.2,30.19,ENE,68,0.0,0.0,59,0.00,,,0.00,VWS V14.01,2013-01-09 14:27:00,
2013-01-09 16:32:00,42.4,29.1,30.19,ENE,68,0.0,0.0,59,0.00,,,0.00,VWS V14.01,2013-01-09 14:32:00,
2013-01-09 16:37:00,42.4,29.1,30.19,ENE,68,0.0,0.0,59,0.00,,,0.00,VWS V14.01,2013-01-09 14:37:00,
2013-01-09 16:42:00,42.4,29.5,30.18,ENE,68,1.1,1.1,60,0.00,,,0.00,VWS V14.01,2013-01-09 14:42:00,
2013-01-09 16:47:00,42.1,29.2,30.18,ENE,68,0.0,0.0,60,0.00,,,0.00,VWS V14.01,2013-01-09 14:47:00,
2013-01-09 16:52:00,41.9,29.4,30.19,ENE,68,0.0,0.0,61,0.00,,,0.00,VWS V14.01,2013-01-09 14:52:00,
2013-01-09 16:57:00,41.9,29.4,30.19,ENE,68,0.0,0.0,61,0.00,,,0.00,VWS V14.01,2013-01-09 14:57:00,
2013-01-09 17:02:00,41.5,29.0,30.19,ENE,68,0.0,0.0,61,0.00,,,0.00,VWS V14.01,2013-01-09 15:02:00,
2013-01-09 17:07:00,41.5,29.0,30.19,ENE,68,0.0,0.0,61,0.00,,,0.00,VWS V14.01,2013-01-09 15:07:00,
2013-01-09 17:12:00,41.2,29.1,30.19,ENE,68,0.0,0.0,62,0.00,,,0.00,VWS V14.01,2013-01-09 15:12:00,
2013-01-09 17:17:00,41.2,29.5,30.19,ENE,68,0.0,0.0,63,0.00,,,0.00,VWS V14.01,2013-01-09 15:17:00,
2013-01-09 17:22:00,41.0,29.4,30.19,ENE,68,0.0,0.0,63,0.00,,,0.00,VWS V14.01,2013-01-09 15:22:00,
2013-01-09 17:27:00,41.0,29.4,30.19,ENE,68,0.0,0.0,63,0.00,,,0.00,VWS V14.01,2013-01-09 15:27:00,
2013-01-09 17:32:00,40.6,29.4,30.19,ENE,68,0.0,0.0,64,0.00,,,0.00,VWS V14.01,2013-01-09 15:32:00,
2013-01-09 17:37:00,40.5,29.3,30.19,ENE,68,0.0,0.0,64,0.00,,,0.00,VWS V14.01,2013-01-09 15:37:00,
2013-01-09 17:42:00,40.5,29.3,30.19,ENE,68,0.0,0.0,64,0.00,,,0.00,VWS V14.01,2013-01-09 15:42:00,
2013-01-09 17:47:00,40.3,29.1,30.19,ENE,68,0.0,0.0,64,0.00,,,0.00,VWS V14.01,2013-01-09 15:47:00,
2013-01-09 17:53:00,40.1,28.9,30.18,ENE,68,0.0,0.0,64,0.00,,,0.00,VWS V14.01,2013-01-09 15:53:00,
2013-01-09 17:58:00,40.1,29.3,30.19,ENE,68,0.0,0.0,65,0.00,,,0.00,VWS V14.01,2013-01-09 15:58:00,
2013-01-09 18:03:00,39.7,28.9,30.19,ENE,68,0.0,0.0,65,0.00,,,0.00,VWS V14.01,2013-01-09 16:03:00,
2013-01-09 18:08:00,39.7,29.2,30.19,ENE,68,0.0,0.0,66,0.00,,,0.00,VWS V14.01,2013-01-09 16:08:00,
2013-01-09 18:13:00,39.4,29.0,30.19,ENE,68,0.0,0.0,66,0.00,,,0.00,VWS V14.01,2013-01-09 16:13:00,
2013-01-09 18:18:00,39.2,28.8,30.19,ENE,68,0.0,0.0,66,0.00,,,0.00,VWS V14.01,2013-01-09 16:18:00,
2013-01-09 18:23:00,39.2,28.8,30.19,ENE,68,0.0,0.0,66,0.00,,,0.00,VWS V14.01,2013-01-09 16:23:00,
2013-01-09 18:28:00,39.0,29.0,30.19,ENE,68,0.0,0.0,67,0.00,,,0.00,VWS V14.01,2013-01-09 16:28:00,
2013-01-09 18:33:00,38.8,28.8,30.19,ENE,68,0.0,0.0,67,0.00,,,0.00,VWS V14.01,2013-01-09 16:33:00,
2013-01-09 18:38:00,38.7,29.0,30.19,ENE,68,0.0,0.0,68,0.00,,,0.00,VWS V14.01,2013-01-09 16:38:00,
2013-01-09 18:43:00,38.5,29.2,30.19,ENE,68,0.0,0.0,69,0.00,,,0.00,VWS V14.01,2013-01-09 16:43:00,
2013-01-09 18:48:00,38.1,28.5,30.19,ENE,68,0.0,0.0,68,0.00,,,0.00,VWS V14.01,2013-01-09 16:48:00,
2013-01-09 18:53:00,37.9,28.6,30.19,ENE,68,0.0,0.0,69,0.00,,,0.00,VWS V14.01,2013-01-09 16:53:00,
2013-01-09 18:58:00,37.6,28.7,30.20,ENE,68,0.0,0.0,70,0.00,,,0.00,VWS V14.01,2013-01-09 16:58:00,
2013-01-09 19:03:00,37.4,28.5,30.20,ENE,68,0.0,0.0,70,0.00,,,0.00,VWS V14.01,2013-01-09 17:03:00,
2013-01-09 19:08:00,37.4,28.8,30.20,ENE,68,0.0,0.0,71,0.00,,,0.00,VWS V14.01,2013-01-09 17:08:00,
2013-01-09 19:13:00,37.0,28.5,30.20,ENE,68,0.0,0.0,71,0.00,,,0.00,VWS V14.01,2013-01-09 17:13:00,
2013-01-09 19:18:00,36.7,28.2,30.20,ENE,68,0.0,0.0,71,0.00,,,0.00,VWS V14.01,2013-01-09 17:18:00,
2013-01-09 19:23:00,36.5,28.3,30.20,ENE,68,0.0,0.0,72,0.00,,,0.00,VWS V14.01,2013-01-09 17:23:00,
2013-01-09 19:29:00,36.5,28.3,30.19,ENE,68,0.0,0.0,72,0.00,,,0.00,VWS V14.01,2013-01-09 17:29:00,
2013-01-09 19:34:00,36.3,28.5,30.19,ENE,68,0.0,0.0,73,0.00,,,0.00,VWS V14.01,2013-01-09 17:34:00,
2013-01-09 19:39:00,36.3,28.5,30.20,ENE,68,0.0,0.0,73,0.00,,,0.00,VWS V14.01,2013-01-09 17:39:00,
2013-01-09 19:44:00,36.1,28.6,30.20,ENE,68,0.0,0.0,74,0.00,,,0.00,VWS V14.01,2013-01-09 17:44:00,
2013-01-09 19:49:00,36.0,28.5,30.20,ENE,68,0.0,0.0,74,0.00,,,0.00,VWS V14.01,2013-01-09 17:49:00,
2013-01-09 19:54:00,36.0,28.5,30.20,ENE,68,0.0,0.0,74,0.00,,,0.00,VWS V14.01,2013-01-09 17:54:00,
2013-01-09 19:59:00,36.0,28.5,30.20,ENE,68,0.0,0.0,74,0.00,,,0.00,VWS V14.01,2013-01-09 17:59:00,
2013-01-09 20:04:00,36.0,28.8,30.20,ENE,68,0.0,0.0,75,0.00,,,0.00,VWS V14.01,2013-01-09 18:04:00,
2013-01-09 20:09:00,35.8,28.6,30.20,ENE,68,0.0,0.0,75,0.00,,,0.00,VWS V14.01,2013-01-09 18:09:00,
2013-01-09 20:14:00,35.6,28.4,30.20,ENE,68,0.0,0.0,75,0.00,,,0.00,VWS V14.01,2013-01-09 18:14:00,
2013-01-09 20:19:00,35.6,28.8,30.19,ENE,68,0.0,0.0,76,0.00,,,0.00,VWS V14.01,2013-01-09 18:19:00,
2013-01-09 20:24:00,35.6,28.8,30.20,ENE,68,0.0,0.0,76,0.00,,,0.00,VWS V14.01,2013-01-09 18:24:00,
2013-01-09 20:29:00,35.6,28.8,30.20,ENE,68,0.0,0.0,76,0.00,,,0.00,VWS V14.01,2013-01-09 18:29:00,
2013-01-09 20:34:00,35.6,28.8,30.20,ENE,68,0.0,0.0,76,0.00,,,0.00,VWS V14.01,2013-01-09 18:34:00,
2013-01-09 20:39:00,35.6,28.8,30.20,ENE,68,0.0,0.0,76,0.00,,,0.00,VWS V14.01,2013-01-09 18:39:00,
2013-01-09 20:41:00,35.6,28.8,30.20,ENE,68,0.0,0.0,76,0.00,,,0.00,VWS V14.01,2013-01-09 18:41:00,
2013-01-09 20:42:00,35.4,28.6,30.20,ENE,68,0.0,0.0,76,0.00,,,0.00,VWS V14.01,2013-01-09 18:42:00,
2013-01-09 20:44:00,35.2,28.4,30.20,ENE,68,0.0,0.0,76,0.00,,,0.00,VWS V14.01,2013-01-09 18:44:00,
2013-01-09 20:45:00,35.2,28.4,30.20,ENE,68,0.0,0.0,76,0.00,,,0.00,VWS V14.01,2013-01-09 18:45:00,
2013-01-09 20:46:00,35.2,28.4,30.20,ENE,68,0.0,0.0,76,0.00,,,0.00,VWS V14.01,2013-01-09 18:46:00,
2013-01-09 20:49:00,34.9,28.1,30.20,ENE,68,0.0,0.0,76,0.00,,,0.00,VWS V14.01,2013-01-09 18:49:00,
2013-01-09 20:50:00,34.9,28.1,30.20,ENE,68,0.0,0.0,76,0.00,,,0.00,VWS V14.01,2013-01-09 18:50:00,
2013-01-09 20:52:00,34.9,28.1,30.20,ENE,68,0.0,0.0,76,0.00,,,0.00,VWS V14.01,2013-01-09 18:52:00,
2013-01-09 20:57:00,34.9,28.1,30.20,ENE,68,0.0,0.0,76,0.00,,,0.00,VWS V14.01,2013-01-09 18:57:00,
2013-01-09 21:02:00,34.9,28.4,30.20,ENE,68,0.0,0.0,77,0.00,,,0.00,VWS V14.01,2013-01-09 19:02:00,
2013-01-09 21:07:00,34.9,28.4,30.20,ENE,68,0.0,0.0,77,0.00,,,0.00,VWS V14.01,2013-01-09 19:07:00,
2013-01-09 21:12:00,34.9,28.4,30.20,ENE,68,0.0,0.0,77,0.00,,,0.00,VWS V14.01,2013-01-09 19:12:00,
2013-01-09 21:17:00,34.9,28.4,30.20,ENE,68,0.0,0.0,77,0.00,,,0.00,VWS V14.01,2013-01-09 19:17:00,
2013-01-09 21:22:00,35.1,28.6,30.20,ENE,68,0.0,0.0,77,0.00,,,0.00,VWS V14.01,2013-01-09 19:22:00,
2013-01-09 21:27:00,35.2,28.7,30.20,ENE,68,0.0,0.0,77,0.00,,,0.00,VWS V14.01,2013-01-09 19:27:00,
2013-01-09 21:32:00,35.4,28.9,30.20,ENE,68,0.0,0.0,77,0.00,,,0.00,VWS V14.01,2013-01-09 19:32:00,
2013-01-09 21:37:00,35.6,29.1,30.20,ENE,68,0.0,0.0,77,0.00,,,0.00,VWS V14.01,2013-01-09 19:37:00,
2013-01-09 21:42:00,35.6,29.1,30.20,ENE,68,0.0,0.0,77,0.00,,,0.00,VWS V14.01,2013-01-09 19:42:00,
2013-01-09 21:47:00,35.6,29.1,30.20,ENE,68,0.0,0.0,77,0.00,,,0.00,VWS V14.01,2013-01-09 19:47:00,
2013-01-09 21:52:00,36.0,29.5,30.20,ENE,68,0.0,0.0,77,0.00,,,0.00,VWS V14.01,2013-01-09 19:52:00,
2013-01-09 21:58:00,36.1,29.9,30.20,ENE,68,0.0,0.0,78,0.00,,,0.00,VWS V14.01,2013-01-09 19:58:00,
2013-01-09 22:03:00,36.3,30.1,30.20,ENE,68,0.0,0.0,78,0.00,,,0.00,VWS V14.01,2013-01-09 20:03:00,
2013-01-09 22:08:00,36.5,30.3,30.20,ENE,68,0.0,0.0,78,0.00,,,0.00,VWS V14.01,2013-01-09 20:08:00,
2013-01-09 22:13:00,36.5,30.3,30.20,ENE,68,0.0,0.0,78,0.00,,,0.00,VWS V14.01,2013-01-09 20:13:00,
2013-01-09 22:18:00,36.5,30.3,30.20,ENE,68,0.0,0.0,78,0.00,,,0.00,VWS V14.01,2013-01-09 20:18:00,
2013-01-09 22:23:00,36.5,30.0,30.20,ENE,68,0.0,0.0,77,0.00,,,0.00,VWS V14.01,2013-01-09 20:23:00,
2013-01-09 22:28:00,36.5,30.3,30.20,ENE,68,0.0,0.0,78,0.00,,,0.00,VWS V14.01,2013-01-09 20:28:00,
2013-01-09 22:33:00,36.7,30.5,30.20,ENE,68,0.0,0.0,78,0.00,,,0.00,VWS V14.01,2013-01-09 20:33:00,
2013-01-09 22:38:00,36.7,30.1,30.20,ENE,68,0.0,0.0,77,0.00,,,0.00,VWS V14.01,2013-01-09 20:38:00,
2013-01-09 22:43:00,36.7,30.1,30.20,ENE,68,0.0,0.0,77,0.00,,,0.00,VWS V14.01,2013-01-09 20:43:00,
2013-01-09 22:48:00,36.7,30.1,30.20,ENE,68,0.0,0.0,77,0.00,,,0.00,VWS V14.01,2013-01-09 20:48:00,
2013-01-09 22:53:00,36.7,30.1,30.20,ENE,68,0.0,0.0,77,0.00,,,0.00,VWS V14.01,2013-01-09 20:53:00,
2013-01-09 22:59:00,36.7,30.1,30.20,ENE,68,0.0,0.0,77,0.00,,,0.00,VWS V14.01,2013-01-09 20:59:00,
2013-01-09 23:04:00,36.9,30.3,30.20,ENE,68,0.0,0.0,77,0.00,,,0.00,VWS V14.01,2013-01-09 21:04:00,
2013-01-09 23:09:00,37.0,30.4,30.20,ENE,68,0.0,0.0,77,0.00,,,0.00,VWS V14.01,2013-01-09 21:09:00,
2013-01-09 23:14:00,37.0,30.4,30.20,ENE,68,0.0,0.0,77,0.00,,,0.00,VWS V14.01,2013-01-09 21:14:00,
2013-01-09 23:19:00,37.0,30.4,30.20,ENE,68,0.0,0.0,77,0.00,,,0.00,VWS V14.01,2013-01-09 21:19:00,
2013-01-09 23:24:00,37.0,30.4,30.20,ENE,68,0.0,0.0,77,0.00,,,0.00,VWS V14.01,2013-01-09 21:24:00,
2013-01-09 23:29:00,37.0,30.4,30.20,ENE,68,0.0,0.0,77,0.00,,,0.00,VWS V14.01,2013-01-09 21:29:00,
2013-01-09 23:34:00,37.0,30.4,30.20,ENE,68,0.0,0.0,77,0.00,,,0.00,VWS V14.01,2013-01-09 21:34:00,
2013-01-09 23:39:00,37.0,30.4,30.20,ENE,68,0.0,0.0,77,0.00,,,0.00,VWS V14.01,2013-01-09 21:39:00,
2013-01-09 23:44:00,37.0,30.1,30.20,ENE,68,0.0,0.0,76,0.00,,,0.00,VWS V14.01,2013-01-09 21:44:00,
2013-01-09 23:49:00,37.0,30.1,30.20,ENE,68,0.0,0.0,76,0.00,,,0.00,VWS V14.01,2013-01-09 21:49:00,
2013-01-09 23:54:00,37.0,30.1,30.20,ENE,68,0.0,0.0,76,0.00,,,0.00,VWS V14.01,2013-01-09 21:54:00,
2013-01-09 23:59:00,37.0,30.1,30.20,ENE,68,0.0,0.0,76,0.00,,,0.00,VWS V14.01,2013-01-09 21:59:00,